TimeEDT,TemperatureF,Dew PointF,Humidity,Sea Level PressureIn,VisibilityMPH,Wind Direction,Wind SpeedMPH,Gust SpeedMPH,PrecipitationIn,Events,Conditions,WindDirDegrees,DateUTC
12:54 AM,75.0,68.0,79,30.26,10.0,SW,11.5,-,N/A,,Clear,220,2013-07-05 04:54:00
1:54 AM,75.0,68.0,79,30.26,10.0,SW,8.1,-,N/A,,Clear,220,2013-07-05 05:54:00
2:54 AM,73.9,68.0,82,30.25,10.0,SSW,8.1,-,N/A,,Clear,210,2013-07-05 06:54:00
3:54 AM,73.0,66.9,81,30.25,10.0,SW,6.9,-,N/A,,Clear,230,2013-07-05 07:54:00
4:54 AM,73.0,66.9,81,30.25,10.0,SW,6.9,-,N/A,,Clear,220,2013-07-05 08:54:00
5:54 AM,73.9,66.9,79,30.26,10.0,SW,6.9,-,N/A,,Clear,230,2013-07-05 09:54:00
6:54 AM,75.9,69.1,79,30.26,10.0,SW,9.2,-,N/A,,Clear,230,2013-07-05 10:54:00
7:54 AM,79.0,71.1,77,30.27,10.0,SW,6.9,-,N/A,,Clear,220,2013-07-05 11:54:00
8:36 AM,80.1,71.1,74,30.28,9.0,SSW,6.9,-,N/A,,Mostly Cloudy,210,2013-07-05 12:36:00
8:51 AM,80.6,71.6,74,30.28,10.0,WSW,8.1,-,N/A,,Mostly Cloudy,240,2013-07-05 12:51:00
8:54 AM,82.0,70.0,67,30.27,10.0,West,10.4,-,N/A,,Mostly Cloudy,280,2013-07-05 12:54:00
9:12 AM,82.9,70.0,65,30.28,10.0,WSW,9.2,-,N/A,,Scattered Clouds,240,2013-07-05 13:12:00
9:33 AM,82.9,71.1,67,30.28,10.0,South,9.2,-,N/A,,Mostly Cloudy,190,2013-07-05 13:33:00
9:54 AM,82.0,71.1,69,30.27,10.0,SSW,9.2,-,N/A,,Mostly Cloudy,200,2013-07-05 13:54:00
10:04 AM,84.0,71.1,65,30.28,10.0,SSW,8.1,-,N/A,,Scattered Clouds,210,2013-07-05 14:04:00
10:12 AM,82.9,71.1,67,30.28,10.0,South,10.4,-,N/A,,Mostly Cloudy,190,2013-07-05 14:12:00
10:41 AM,84.0,71.1,65,30.28,10.0,SSW,10.4,-,N/A,,Scattered Clouds,200,2013-07-05 14:41:00
10:54 AM,82.9,71.1,67,30.27,10.0,SSW,11.5,-,N/A,,Partly Cloudy,200,2013-07-05 14:54:00
11:54 AM,84.0,71.1,65,30.27,10.0,SSW,13.8,-,N/A,,Mostly Cloudy,200,2013-07-05 15:54:00
12:06 PM,84.0,71.1,65,30.28,10.0,SSW,12.7,-,N/A,,Mostly Cloudy,200,2013-07-05 16:06:00
12:27 PM,86.0,72.0,63,30.27,10.0,SSW,13.8,-,N/A,,Mostly Cloudy,200,2013-07-05 16:27:00
12:54 PM,84.9,71.1,63,30.26,10.0,SSW,12.7,-,N/A,,Mostly Cloudy,210,2013-07-05 16:54:00
1:54 PM,86.0,72.0,63,30.25,10.0,SSW,15.0,-,N/A,,Mostly Cloudy,210,2013-07-05 17:54:00
2:54 PM,84.9,71.1,63,30.24,10.0,SSW,15.0,-,N/A,,Scattered Clouds,200,2013-07-05 18:54:00
3:54 PM,84.0,71.1,65,30.22,10.0,SSW,15.0,-,N/A,,Partly Cloudy,210,2013-07-05 19:54:00
4:54 PM,84.0,71.1,65,30.20,10.0,SSW,18.4,24.2,N/A,,Clear,200,2013-07-05 20:54:00
5:54 PM,82.9,71.1,67,30.19,10.0,SSW,13.8,-,N/A,,Clear,210,2013-07-05 21:54:00
6:54 PM,82.0,70.0,67,30.18,10.0,SSW,12.7,-,N/A,,Clear,210,2013-07-05 22:54:00
7:54 PM,80.1,69.1,69,30.19,10.0,SW,16.1,-,N/A,,Clear,220,2013-07-05 23:54:00
8:54 PM,78.1,69.1,74,30.20,10.0,SSW,13.8,-,N/A,,Clear,210,2013-07-06 00:54:00
9:54 PM,78.1,69.1,74,30.21,10.0,SSW,12.7,-,N/A,,Clear,200,2013-07-06 01:54:00
10:54 PM,77.0,69.1,76,30.20,10.0,SSW,12.7,-,N/A,,Clear,210,2013-07-06 02:54:00
11:54 PM,75.9,68.0,76,30.21,10.0,SW,9.2,-,N/A,,Scattered Clouds,220,2013-07-06 03:54:00